Time;durP1;ratioP1;P1;durP2;ratioP2;P2;SDS_P1;SDS_P2;PMS_P1;PMS_P2;Temp;Humidity;BMP_temperature;BMP_pressure;BME280_temperature;BME280_humidity;BME280_pressure;Samples;Min_cycle;Max_cycle;Signal;HPM_P1;HPM_P2
2023/04/26 00:00:25;;;;;;;5.67;3.60;;;;;;;12.15;100.00;100457.66;2079554;28;20200;-64
2023/04/26 00:01:26;;;;;;;5.43;3.27;;;;;;;12.15;100.00;100460.44;2079220;28;20232;-64
2023/04/26 00:02:26;;;;;;;4.53;3.80;;;;;;;12.18;100.00;100459.56;2079819;28;20201;-64
2023/04/26 00:03:27;;;;;;;4.30;3.80;;;;;;;12.18;100.00;100461.53;2080385;28;20424;-64
2023/04/26 00:04:27;;;;;;;4.10;3.70;;;;;;;11.90;100.00;100424.38;2080875;28;20299;-64
2023/04/26 00:05:28;;;;;;;3.90;3.50;;;;;;;12.16;100.00;100462.00;2079898;28;20192;-64
2023/04/26 00:06:28;;;;;;;4.10;3.70;;;;;;;12.16;100.00;100458.44;2079887;28;20234;-64
2023/04/26 00:07:29;;;;;;;4.00;3.60;;;;;;;12.17;100.00;100455.22;2085052;28;20282;-64
2023/04/26 00:08:30;;;;;;;4.43;4.03;;;;;;;12.19;100.00;100460.34;2084019;28;20192;-64
2023/04/26 00:09:30;;;;;;;6.00;3.60;;;;;;;12.19;100.00;100454.78;2080143;28;20237;-64
2023/04/26 00:10:31;;;;;;;4.30;3.73;;;;;;;12.23;100.00;100459.00;2080206;28;20227;-64
2023/04/26 00:11:31;;;;;;;4.57;3.60;;;;;;;11.51;100.00;100346.31;2079139;28;20228;-64
2023/04/26 00:12:32;;;;;;;5.07;4.00;;;;;;;12.18;100.00;100451.22;2081538;28;20212;-64
2023/04/26 00:13:32;;;;;;;4.63;3.97;;;;;;;12.16;100.00;100450.13;2079637;28;20654;-64
2023/04/26 00:14:33;;;;;;;7.23;4.30;;;;;;;12.07;100.00;100439.69;2080060;28;20709;-64
2023/04/26 00:15:33;;;;;;;5.00;3.60;;;;;;;11.87;100.00;100416.94;2074711;28;20236;-64
2023/04/26 00:16:33;;;;;;;5.10;4.17;;;;;;;12.13;100.00;100449.00;2075536;28;20204;-64
2023/04/26 00:17:34;;;;;;;4.90;3.87;;;;;;;12.09;100.00;100447.56;2080372;28;20590;-64
2023/04/26 00:18:34;;;;;;;4.30;3.90;;;;;;;12.11;100.00;100447.91;2080105;28;20598;-64
2023/04/26 00:19:35;;;;;;;4.57;3.87;;;;;;;12.02;100.00;100439.47;2080084;28;20214;-64
2023/04/26 00:20:36;;;;;;;6.50;3.93;;;;;;;12.08;100.00;100452.34;2080808;28;20184;-64
2023/04/26 00:21:36;;;;;;;5.60;4.23;;;;;;;12.08;100.00;100446.78;2080268;28;20453;-64
2023/04/26 00:22:37;;;;;;;4.83;4.00;;;;;;;12.08;100.00;100448.78;2072888;28;20205;-64
2023/04/26 00:23:37;;;;;;;5.83;4.27;;;;;;;12.10;100.00;100446.34;2077870;28;20199;-64
2023/04/26 00:24:38;;;;;;;7.07;4.17;;;;;;;12.11;100.00;100445.91;2080114;28;20221;-64
2023/04/26 00:25:38;;;;;;;5.03;4.50;;;;;;;11.76;100.00;100399.84;2080054;28;20195;-64
2023/04/26 00:26:39;;;;;;;5.87;4.10;;;;;;;12.00;100.00;100439.91;2079700;28;20181;-64
2023/04/26 00:27:39;;;;;;;4.77;4.23;;;;;;;11.95;100.00;100434.91;2084217;28;20193;-64
2023/04/26 00:28:40;;;;;;;4.40;4.00;;;;;;;11.95;100.00;100439.69;2072250;28;20232;-64
2023/04/26 00:29:40;;;;;;;6.83;3.97;;;;;;;11.94;100.00;100436.13;2078452;28;20479;-64
2023/04/26 00:30:46;;;;;;;4.77;4.27;;;;;;;11.88;100.00;100437.91;2080100;28;20207;-64
2023/04/26 00:31:47;;;;;;;6.60;4.00;;;;;;;11.83;100.00;100429.38;2079888;28;20199;-64
2023/04/26 00:32:47;;;;;;;6.43;4.10;;;;;;;11.82;100.00;100431.38;2079959;28;20481;-64
2023/04/26 00:33:48;;;;;;;5.93;4.40;;;;;;;11.82;100.00;100434.16;2080177;28;20307;-64
2023/04/26 00:34:48;;;;;;;5.43;4.27;;;;;;;11.38;100.00;100362.97;2080139;28;20180;-64
2023/04/26 00:35:49;;;;;;;6.03;4.60;;;;;;;11.82;100.00;100433.38;2079883;28;20189;-64
2023/04/26 00:36:49;;;;;;;4.60;4.03;;;;;;;11.82;100.00;100428.59;2080469;28;20266;-64
2023/04/26 00:37:50;;;;;;;4.90;4.20;;;;;;;11.16;100.00;100328.00;2079903;28;20231;-64
2023/04/26 00:38:50;;;;;;;6.17;4.53;;;;;;;11.80;100.00;100427.50;2080225;28;20200;-64
2023/04/26 00:39:51;;;;;;;4.67;4.03;;;;;;;11.81;100.00;100424.28;2079350;28;20235;-64
2023/04/26 00:40:51;;;;;;;6.27;4.27;;;;;;;11.58;100.00;100384.94;2080110;28;20287;-64
2023/04/26 00:41:51;;;;;;;5.00;4.40;;;;;;;11.77;100.00;100423.59;2080743;28;20203;-64
2023/04/26 00:43:02;;;;;;;6.17;4.57;;;;;;;11.78;100.00;100424.38;2086297;28;20190;-64
2023/04/26 00:44:02;;;;;;;6.90;4.60;;;;;;;11.53;100.00;100383.50;2077950;28;20634;-64
2023/04/26 00:45:03;;;;;;;6.07;4.40;;;;;;;11.78;100.00;100421.63;2072658;28;20903;-64
2023/04/26 00:46:03;;;;;;;5.13;4.40;;;;;;;11.77;100.00;100420.03;2080644;28;20185;-64
2023/04/26 00:47:05;;;;;;;6.93;4.93;;;;;;;11.77;100.00;100422.81;2071902;28;20201;-64
2023/04/26 00:48:05;;;;;;;6.17;4.27;;;;;;;11.72;100.00;100415.84;2078454;28;20201;-64
2023/04/26 00:49:06;;;;;;;5.40;4.90;;;;;;;11.72;100.00;100409.50;2076838;28;20445;-64
2023/04/26 00:50:07;;;;;;;7.10;4.80;;;;;;;11.23;100.00;100349.97;2084467;28;20575;-64
2023/04/26 00:51:08;;;;;;;8.23;4.70;;;;;;;11.14;100.00;100333.22;2086432;28;20205;-64
2023/04/26 00:52:10;;;;;;;5.13;4.63;;;;;;;11.70;100.00;100411.94;2081113;28;20994;-64
2023/04/26 00:53:13;;;;;;;5.67;4.27;;;;;;;11.19;100.00;100335.44;2081452;28;21001;-64
2023/04/26 00:54:14;;;;;;;5.73;4.50;;;;;;;11.71;100.00;100413.50;2081457;28;20473;-64
2023/04/26 00:55:15;;;;;;;5.50;4.40;;;;;;;11.71;100.00;100422.59;2082102;28;20430;-64
2023/04/26 00:56:17;;;;;;;5.60;4.40;;;;;;;11.68;100.00;100417.19;2081514;28;20454;-64
2023/04/26 00:57:17;;;;;;;6.07;4.47;;;;;;;11.67;100.00;100408.06;2081750;28;20458;-64
2023/04/26 00:58:17;;;;;;;6.03;4.37;;;;;;;11.70;100.00;100411.94;2086229;28;20511;-64
2023/04/26 00:59:21;;;;;;;5.80;4.30;;;;;;;11.70;100.00;100432.16;2085200;28;20204;-64
2023/04/26 01:00:21;;;;;;;5.23;4.50;;;;;;;11.46;100.00;100375.41;2087922;28;20198;-64
2023/04/26 01:01:22;;;;;;;5.57;4.50;;;;;;;11.66;100.00;100417.63;2088977;28;20429;-64
2023/04/26 01:02:22;;;;;;;6.30;4.80;;;;;;;11.66;100.00;100422.38;2074386;28;20182;-64
2023/04/26 01:03:23;;;;;;;5.10;4.57;;;;;;;11.68;100.00;100411.63;2081497;28;20270;-64
2023/04/26 01:04:26;;;;;;;7.50;4.70;;;;;;;11.68;100.00;100415.16;2084825;28;20180;-64
2023/04/26 01:05:26;;;;;;;5.03;4.53;;;;;;;11.65;100.00;100418.84;2082367;28;20534;-64
2023/04/26 01:06:33;;;;;;;7.97;4.53;;;;;;;11.62;100.00;100410.59;2081319;28;20497;-64
2023/04/26 01:07:35;;;;;;;7.93;5.00;;;;;;;11.59;100.00;100405.97;2081689;28;20583;-64
2023/04/26 01:08:36;;;;;;;5.97;4.40;;;;;;;11.62;100.00;100413.38;2081309;28;20447;-64
2023/04/26 01:09:36;;;;;;;6.10;4.60;;;;;;;11.33;100.00;100376.63;2081544;28;20446;-64
2023/04/26 01:10:38;;;;;;;5.63;4.30;;;;;;;11.57;100.00;100409.13;2081244;28;20283;-64
2023/04/26 01:11:41;;;;;;;5.20;4.40;;;;;;;11.24;100.00;100363.41;2081528;28;20186;-64
2023/04/26 01:12:41;;;;;;;6.90;4.43;;;;;;;11.48;100.00;100414.56;2080412;28;20427;-64
2023/04/26 01:13:42;;;;;;;5.90;4.63;;;;;;;11.46;100.00;100417.03;2074034;28;20420;-64
2023/04/26 01:14:44;;;;;;;6.13;4.63;;;;;;;11.47;100.00;100418.56;2081475;28;20201;-64
2023/04/26 01:15:45;;;;;;;6.40;4.63;;;;;;;11.48;100.00;100417.34;2081337;28;20454;-64
2023/04/26 01:16:46;;;;;;;5.27;4.77;;;;;;;11.46;100.00;100419.00;2081078;28;20446;-64
2023/04/26 01:17:46;;;;;;;7.10;5.00;;;;;;;11.45;100.00;100418.25;2081327;28;20458;-64
2023/04/26 01:18:51;;;;;;;7.73;4.50;;;;;;;11.42;100.00;100421.13;2081213;28;20443;-64
2023/04/26 01:19:52;;;;;;;6.10;4.70;;;;;;;11.38;100.00;100421.22;2081516;28;20201;-64
2023/04/26 01:20:52;;;;;;;5.70;4.70;;;;;;;11.30;100.00;100416.31;2082268;28;20510;-64
2023/04/26 01:21:53;;;;;;;8.87;4.80;;;;;;;11.28;100.00;100422.31;2088538;28;20192;-64
2023/04/26 01:22:53;;;;;;;5.53;4.60;;;;;;;11.27;100.00;100418.00;2081963;28;20199;-64
2023/04/26 01:23:54;;;;;;;5.20;4.37;;;;;;;11.24;100.00;100409.78;2081457;28;20189;-64
2023/04/26 01:24:56;;;;;;;5.97;4.37;;;;;;;10.74;100.00;100349.47;2081469;28;20486;-64
2023/04/26 01:25:57;;;;;;;5.10;4.60;;;;;;;11.22;100.00;100410.22;2081296;28;20197;-64
2023/04/26 01:26:58;;;;;;;5.87;4.63;;;;;;;11.13;100.00;100406.53;2080997;28;20457;-64
2023/04/26 01:27:58;;;;;;;7.20;4.90;;;;;;;11.18;100.00;100422.66;2081293;28;20729;-64
2023/04/26 01:28:59;;;;;;;5.40;4.87;;;;;;;10.63;100.00;100331.59;2081315;28;20267;-64
2023/04/26 01:29:59;;;;;;;6.57;4.70;;;;;;;11.01;100.00;100396.97;2080864;28;20181;-66
2023/04/26 01:30:59;;;;;;;5.80;4.90;;;;;;;11.22;100.00;100428.88;2081995;28;20199;-65
2023/04/26 01:32:00;;;;;;;5.47;4.90;;;;;;;11.18;100.00;100426.19;2072714;28;20194;-64
2023/04/26 01:33:00;;;;;;;5.90;4.83;;;;;;;11.18;100.00;100422.66;2080070;28;20302;-64
2023/04/26 01:34:01;;;;;;;7.50;4.67;;;;;;;11.16;100.00;100431.41;2081189;28;20282;-64
2023/04/26 01:35:01;;;;;;;5.50;4.90;;;;;;;11.12;100.00;100425.19;2081408;28;20197;-64
2023/04/26 01:36:02;;;;;;;5.23;4.73;;;;;;;11.04;100.00;100420.28;2081472;28;20282;-64
2023/04/26 01:37:02;;;;;;;6.03;4.43;;;;;;;11.07;100.00;100427.72;2077961;28;20234;-64
2023/04/26 01:38:03;;;;;;;7.17;4.73;;;;;;;11.18;100.00;100430.97;2072432;28;20220;-64
2023/04/26 01:39:04;;;;;;;5.17;4.67;;;;;;;11.20;100.00;100434.06;2073809;28;20677;-64
2023/04/26 01:40:05;;;;;;;5.50;4.47;;;;;;;11.24;100.00;100431.97;2081926;28;20271;-64
2023/04/26 01:41:06;;;;;;;6.27;4.57;;;;;;;11.23;100.00;100435.97;2081339;28;20283;-65
2023/04/26 01:42:06;;;;;;;7.77;4.60;;;;;;;11.26;100.00;100435.06;2081189;28;20455;-64
2023/04/26 01:43:07;;;;;;;6.57;4.30;;;;;;;11.26;100.00;100433.09;2081086;28;20219;-64
2023/04/26 01:44:07;;;;;;;8.23;4.67;;;;;;;11.29;100.00;100442.53;2081231;28;20628;-64
2023/04/26 01:45:08;;;;;;;6.93;4.73;;;;;;;11.32;100.00;100444.44;2081275;28;20725;-64
2023/04/26 01:46:08;;;;;;;7.03;5.10;;;;;;;11.30;100.00;100446.84;2081421;28;20192;-64
2023/04/26 01:47:09;;;;;;;7.63;4.90;;;;;;;11.25;100.00;100431.53;2080769;28;20219;-64
2023/04/26 01:48:09;;;;;;;6.13;4.90;;;;;;;11.32;100.00;100445.19;2082060;28;20180;-64
2023/04/26 01:49:10;;;;;;;8.13;4.67;;;;;;;11.34;100.00;100475.25;2081480;28;20185;-64
2023/04/26 01:50:11;;;;;;;5.73;4.53;;;;;;;11.32;100.00;100445.19;2081203;28;20204;-64
2023/04/26 01:51:11;;;;;;;5.03;4.60;;;;;;;11.22;100.00;100432.41;2084965;28;20196;-64
2023/04/26 01:52:12;;;;;;;6.23;4.50;;;;;;;11.33;100.00;100459.84;2085000;28;20691;-64
2023/04/26 01:53:12;;;;;;;7.53;4.47;;;;;;;11.22;100.00;100449.03;2081188;28;20212;-64
2023/04/26 01:54:13;;;;;;;6.73;4.53;;;;;;;11.19;100.00;100458.28;2081400;28;20181;-64
2023/04/26 01:55:13;;;;;;;6.83;4.93;;;;;;;11.19;100.00;100451.94;2081381;28;20276;-64
2023/04/26 01:56:14;;;;;;;9.53;4.97;;;;;;;11.19;100.00;100455.50;2081786;28;20271;-64
2023/04/26 01:57:14;;;;;;;6.43;4.97;;;;;;;11.14;100.00;100458.03;2080450;28;20302;-64
2023/04/26 01:58:15;;;;;;;6.50;4.80;;;;;;;11.05;100.00;100432.91;2074607;28;20647;-64
2023/04/26 01:59:16;;;;;;;8.10;5.20;;;;;;;11.10;100.00;100440.69;2078272;28;20185;-64
2023/04/26 02:00:16;;;;;;;5.63;4.80;;;;;;;11.21;100.00;100446.72;2081262;28;20451;-64
2023/04/26 02:01:17;;;;;;;7.57;5.17;;;;;;;10.73;100.00;100372.84;2080982;28;20188;-64
2023/04/26 02:02:17;;;;;;;6.00;4.60;;;;;;;11.23;100.00;100452.63;2080983;28;20177;-64
2023/04/26 02:03:18;;;;;;;9.33;4.77;;;;;;;11.23;100.00;100447.81;2077922;28;20177;-64
2023/04/26 02:04:18;;;;;;;6.80;4.93;;;;;;;10.61;100.00;100361.72;2081159;28;20189;-64
2023/04/26 02:05:19;;;;;;;6.33;5.13;;;;;;;11.17;100.00;100446.06;2080923;28;20188;-64
2023/04/26 02:06:20;;;;;;;6.37;4.83;;;;;;;11.16;100.00;100441.69;2080945;28;20201;-64
2023/04/26 02:07:20;;;;;;;6.53;4.80;;;;;;;11.14;100.00;100438.59;2081191;28;20199;-64
2023/04/26 02:08:21;;;;;;;5.20;4.70;;;;;;;10.37;100.00;100322.44;2081171;28;20452;-64
2023/04/26 02:09:21;;;;;;;5.20;4.70;;;;;;;11.22;100.00;100442.75;2081316;28;20207;-64
2023/04/26 02:10:22;;;;;;;5.83;4.93;;;;;;;11.20;100.00;100439.59;2087162;28;20554;-64
2023/04/26 02:11:23;;;;;;;6.67;5.00;;;;;;;11.23;100.00;100444.28;2080755;28;20248;-64
2023/04/26 02:12:23;;;;;;;9.27;5.20;;;;;;;11.23;100.00;100436.72;2081432;28;20302;-64
2023/04/26 02:13:24;;;;;;;6.00;4.60;;;;;;;11.29;100.00;100442.53;2086384;28;20944;-64
2023/04/26 02:14:25;;;;;;;7.67;5.10;;;;;;;11.28;100.00;100438.97;2082339;28;20729;-64
2023/04/26 02:15:25;;;;;;;7.80;5.00;;;;;;;11.23;100.00;100439.50;2081136;28;20522;-64
2023/04/26 02:16:26;;;;;;;6.07;5.10;;;;;;;11.30;100.00;100441.28;2080672;28;20574;-64
2023/04/26 02:17:28;;;;;;;6.70;5.00;;;;;;;10.14;100.00;100263.75;2081620;28;20570;-64
2023/04/26 02:18:28;;;;;;;7.23;4.83;;;;;;;11.33;100.00;100432.09;2085113;28;20184;-64
2023/04/26 02:19:29;;;;;;;7.53;5.33;;;;;;;11.36;100.00;100433.97;2080845;28;20416;-64
2023/04/26 02:20:30;;;;;;;6.40;4.40;;;;;;;11.34;100.00;100428.09;2080788;28;20208;-64
2023/04/26 02:21:30;;;;;;;6.07;4.60;;;;;;;11.30;100.00;100433.75;2081674;28;20418;-64
2023/04/26 02:22:31;;;;;;;5.80;4.60;;;;;;;11.28;100.00;100435.44;2080638;28;20202;-64
2023/04/26 02:23:31;;;;;;;6.33;4.80;;;;;;;11.19;100.00;100427.75;2081243;28;20193;-64
2023/04/26 02:24:32;;;;;;;5.17;4.40;;;;;;;11.30;100.00;100438.53;2076006;28;20346;-64
2023/04/26 02:25:32;;;;;;;7.20;4.87;;;;;;;11.26;100.00;100441.41;2076269;28;20212;-64
2023/04/26 02:26:33;;;;;;;6.20;4.80;;;;;;;11.29;100.00;100435.00;2080668;28;20184;-64
2023/04/26 02:27:33;;;;;;;6.33;4.70;;;;;;;11.25;100.00;100437.09;2079273;28;20219;-64
2023/04/26 02:28:34;;;;;;;6.43;5.10;;;;;;;11.07;100.00;100425.72;2072878;28;20573;-64
2023/04/26 02:29:35;;;;;;;7.83;5.10;;;;;;;11.17;100.00;100444.03;2081745;28;20242;-64
2023/04/26 02:30:36;;;;;;;5.43;4.70;;;;;;;11.05;100.00;100446.78;2080937;28;20199;-64
2023/04/26 02:31:36;;;;;;;7.17;5.53;;;;;;;11.07;100.00;100447.13;2080697;28;20456;-64
2023/04/26 02:32:37;;;;;;;6.03;5.43;;;;;;;10.85;100.00;100410.13;2080779;28;20281;-64
2023/04/26 02:33:37;;;;;;;5.20;4.70;;;;;;;10.29;100.00;100323.03;2083291;28;20207;-64
2023/04/26 02:34:38;;;;;;;7.00;4.77;;;;;;;11.08;100.00;100437.59;2086151;28;20231;-64
2023/04/26 02:35:38;;;;;;;5.40;4.90;;;;;;;11.09;100.00;100439.16;2080919;28;20188;-64
2023/04/26 02:36:38;;;;;;;7.70;5.17;;;;;;;10.17;100.00;100296.06;2080610;28;20685;-64
2023/04/26 02:37:39;;;;;;;5.40;4.60;;;;;;;10.89;100.00;100419.13;2081608;28;20653;-64
2023/04/26 02:38:40;;;;;;;5.43;4.90;;;;;;;10.44;100.00;100332.50;2087932;28;20282;-64
2023/04/26 02:39:40;;;;;;;5.17;4.63;;;;;;;11.13;100.00;100434.28;2082738;28;20207;-64
2023/04/26 02:40:41;;;;;;;5.13;4.60;;;;;;;11.14;100.00;100435.84;2080650;28;20549;-64
2023/04/26 02:41:41;;;;;;;5.10;4.60;;;;;;;11.13;100.00;100431.50;2080248;28;20203;-64
2023/04/26 02:42:42;;;;;;;5.33;4.83;;;;;;;11.14;100.00;100433.06;2080670;28;20665;-64
2023/04/26 02:43:42;;;;;;;6.70;4.60;;;;;;;11.09;100.00;100426.06;2080780;28;20183;-64
2023/04/26 02:44:43;;;;;;;5.70;5.00;;;;;;;10.96;100.00;100403.06;2080548;28;20211;-64
2023/04/26 02:45:43;;;;;;;7.73;4.90;;;;;;;10.51;100.00;100335.88;2081545;28;20266;-64
2023/04/26 02:46:44;;;;;;;7.07;4.40;;;;;;;11.12;100.00;100419.63;2080402;28;20705;-64
2023/04/26 02:47:44;;;;;;;6.77;5.17;;;;;;;11.11;100.00;100426.41;2080854;28;20580;-64
2023/04/26 02:48:45;;;;;;;6.33;4.80;;;;;;;11.04;100.00;100421.06;2080144;28;20188;-64
2023/04/26 02:49:45;;;;;;;5.90;5.03;;;;;;;10.23;100.00;100319.25;2080550;28;20283;-64
2023/04/26 02:50:46;;;;;;;4.97;4.50;;;;;;;10.32;100.00;100308.31;2079739;28;20211;-65
2023/04/26 02:51:46;;;;;;;8.43;4.80;;;;;;;11.08;100.00;100416.19;2079476;28;20574;-64
2023/04/26 02:52:47;;;;;;;7.00;5.00;;;;;;;11.11;100.00;100420.84;2080711;28;20661;-65
2023/04/26 02:53:47;;;;;;;6.30;4.73;;;;;;;10.84;100.00;100376.09;2081484;28;20663;-64
2023/04/26 02:54:47;;;;;;;6.23;5.00;;;;;;;11.07;100.00;100409.06;2073468;28;20206;-64
2023/04/26 02:55:48;;;;;;;5.73;5.00;;;;;;;11.07;100.00;100403.53;2078259;28;20223;-64
2023/04/26 02:56:48;;;;;;;5.60;4.93;;;;;;;11.10;100.00;100415.75;2080454;28;20204;-64
2023/04/26 02:57:49;;;;;;;5.57;4.63;;;;;;;11.08;100.00;100410.66;2080214;28;20592;-64
2023/04/26 02:58:50;;;;;;;5.30;4.80;;;;;;;11.08;100.00;100398.78;2080207;28;20189;-64
2023/04/26 02:59:50;;;;;;;5.27;4.67;;;;;;;11.06;100.00;100415.09;2080309;28;20192;-64
2023/04/26 03:00:53;;;;;;;6.10;4.57;;;;;;;11.04;100.00;100414.72;2080762;28;20192;-64
2023/04/26 03:01:53;;;;;;;5.97;4.77;;;;;;;11.04;100.00;100409.97;2072998;28;20199;-64
2023/04/26 03:02:53;;;;;;;6.30;4.60;;;;;;;11.03;100.00;100416.75;2079476;28;20442;-64
2023/04/26 03:03:54;;;;;;;5.53;5.03;;;;;;;11.08;100.00;100415.41;2079410;28;20673;-64
2023/04/26 03:04:54;;;;;;;6.30;5.63;;;;;;;11.06;100.00;100412.31;2080491;28;20694;-65
2023/04/26 03:05:55;;;;;;;8.23;5.00;;;;;;;11.06;100.00;100409.53;2080618;28;20248;-64
2023/04/26 03:06:55;;;;;;;6.43;5.07;;;;;;;11.06;100.00;100406.75;2080277;28;20199;-64
2023/04/26 03:07:56;;;;;;;6.70;4.87;;;;;;;11.00;100.00;100408.50;2080640;28;20275;-65
2023/04/26 03:08:56;;;;;;;7.10;5.17;;;;;;;10.94;100.00;100394.41;2080523;28;20181;-64
2023/04/26 03:09:56;;;;;;;5.67;5.10;;;;;;;11.02;100.00;100401.31;2081316;28;20216;-64
2023/04/26 03:10:57;;;;;;;6.23;4.97;;;;;;;11.01;100.00;100404.53;2080592;28;20628;-64
2023/04/26 03:11:57;;;;;;;5.23;4.73;;;;;;;11.02;100.00;100403.31;2080291;28;20188;-64
2023/04/26 03:12:58;;;;;;;6.40;5.07;;;;;;;10.76;100.00;100362.88;2080181;28;20279;-64
2023/04/26 03:13:58;;;;;;;7.43;4.67;;;;;;;10.94;100.00;100386.09;2080751;28;20204;-64
2023/04/26 03:14:59;;;;;;;5.90;4.90;;;;;;;11.03;100.00;100386.25;2080719;28;20322;-64
2023/04/26 03:15:59;;;;;;;7.07;5.10;;;;;;;11.11;100.00;100404.22;2079892;28;20259;-64
2023/04/26 03:17:01;;;;;;;7.00;5.27;;;;;;;10.98;100.00;100394.31;2080212;28;20256;-64
2023/04/26 03:18:02;;;;;;;6.33;5.03;;;;;;;10.45;100.00;100303.63;2081242;28;20195;-64
2023/04/26 03:19:02;;;;;;;6.20;5.00;;;;;;;10.92;100.00;100376.69;2080125;28;20485;-64
2023/04/26 03:20:05;;;;;;;6.37;5.00;;;;;;;10.69;100.00;100349.22;2080637;28;20207;-64
2023/04/26 03:21:06;;;;;;;5.30;4.80;;;;;;;11.08;100.00;100405.09;2082631;28;20238;-64
2023/04/26 03:22:06;;;;;;;5.70;5.07;;;;;;;11.02;100.00;100406.84;2084623;28;20459;-64
2023/04/26 03:23:06;;;;;;;6.50;5.10;;;;;;;10.98;100.00;100402.63;2080249;28;20265;-64
2023/04/26 03:24:07;;;;;;;5.97;4.97;;;;;;;11.03;100.00;100407.63;2080287;28;20319;-64
2023/04/26 03:25:08;;;;;;;6.07;5.20;;;;;;;11.06;100.00;100412.31;2080230;28;20588;-64
2023/04/26 03:26:08;;;;;;;6.67;5.40;;;;;;;11.05;100.00;100407.97;2081124;28;20212;-64
2023/04/26 03:27:09;;;;;;;6.83;4.70;;;;;;;11.04;100.00;100404.44;2079508;28;20196;-64
2023/04/26 03:28:09;;;;;;;5.47;4.97;;;;;;;11.01;100.00;100415.63;2079795;28;20298;-64
2023/04/26 03:29:11;;;;;;;5.67;5.03;;;;;;;10.97;100.00;100403.84;2080638;28;20204;-64
2023/04/26 03:30:12;;;;;;;5.87;5.27;;;;;;;10.92;100.00;100402.38;2075852;28;20199;-64
2023/04/26 03:31:12;;;;;;;6.10;5.43;;;;;;;10.95;100.00;100407.06;2075500;28;20458;-64
2023/04/26 03:32:13;;;;;;;6.07;5.23;;;;;;;10.97;100.00;100407.38;2080189;28;20418;-65
2023/04/26 03:33:13;;;;;;;8.27;5.67;;;;;;;10.99;100.00;100396.66;2080554;28;20211;-64
2023/04/26 03:34:14;;;;;;;6.03;5.43;;;;;;;10.96;100.00;100394.75;2081075;28;20685;-64
2023/04/26 03:35:14;;;;;;;7.43;5.27;;;;;;;10.93;100.00;100400.41;2080425;28;20318;-64
2023/04/26 03:36:16;;;;;;;6.20;5.13;;;;;;;10.98;100.00;100400.66;2080369;28;20220;-64
2023/04/26 03:37:16;;;;;;;8.93;5.80;;;;;;;11.03;100.00;100402.09;2080369;28;20199;-64
2023/04/26 03:38:16;;;;;;;7.50;5.33;;;;;;;11.02;100.00;100398.53;2080454;28;20952;-64
2023/04/26 03:39:17;;;;;;;6.60;5.53;;;;;;;11.01;100.00;100413.63;2080276;28;20204;-64
2023/04/26 03:40:18;;;;;;;5.77;5.13;;;;;;;10.97;100.00;100393.53;2080288;28;20184;-64
2023/04/26 03:41:18;;;;;;;5.73;5.13;;;;;;;10.90;100.00;100390.19;2080416;28;20232;-64
2023/04/26 03:42:20;;;;;;;6.40;5.70;;;;;;;10.90;100.00;100396.50;2080187;28;20179;-64
2023/04/26 03:43:20;;;;;;;6.30;5.63;;;;;;;10.87;100.00;100402.16;2081043;28;20176;-64
2023/04/26 03:44:21;;;;;;;6.40;5.70;;;;;;;10.71;100.00;100377.28;2079579;28;20454;-64
2023/04/26 03:45:21;;;;;;;7.57;5.63;;;;;;;10.82;100.00;100400.69;2079308;28;20275;-64
2023/04/26 03:46:21;;;;;;;6.67;5.70;;;;;;;10.79;100.00;100400.78;2079867;28;20211;-64
2023/04/26 03:47:22;;;;;;;6.40;5.80;;;;;;;10.79;100.00;100406.34;2080067;28;20286;-64
2023/04/26 03:48:22;;;;;;;6.70;5.60;;;;;;;10.82;100.00;100399.94;2080306;28;20183;-64
2023/04/26 03:49:22;;;;;;;6.07;5.47;;;;;;;10.86;100.00;100401.38;2079486;28;20180;-64
2023/04/26 03:50:23;;;;;;;5.80;5.27;;;;;;;10.90;100.00;100398.50;2080961;28;20686;-64
2023/04/26 03:51:23;;;;;;;5.50;5.00;;;;;;;10.91;100.00;100405.63;2080365;28;20710;-64
2023/04/26 03:52:24;;;;;;;6.37;5.33;;;;;;;10.95;100.00;100398.75;2080076;28;20675;-64
2023/04/26 03:53:24;;;;;;;5.53;5.03;;;;;;;10.98;100.00;100408.19;2080409;28;20673;-64
2023/04/26 03:54:25;;;;;;;5.30;4.47;;;;;;;11.03;100.00;100402.88;2079842;28;20189;-64
2023/04/26 03:55:25;;;;;;;6.90;4.53;;;;;;;10.98;100.00;100403.44;2080152;28;20579;-64
2023/04/26 03:56:25;;;;;;;5.27;4.77;;;;;;;10.90;100.00;100381.88;2085977;28;20612;-64
2023/04/26 03:57:26;;;;;;;5.70;4.63;;;;;;;11.10;100.00;100404.66;2080356;28;20169;-72
2023/04/26 03:58:27;;;;;;;6.80;4.37;;;;;;;11.16;100.00;100408.41;2075736;28;20185;-63
2023/04/26 03:59:28;;;;;;;5.70;4.40;;;;;;;11.14;100.00;100400.56;2079200;28;20230;-64
2023/04/26 04:00:29;;;;;;;5.97;4.43;;;;;;;11.25;100.00;100412.13;2078588;28;20452;-64
2023/04/26 04:01:30;;;;;;;5.73;4.23;;;;;;;10.40;100.00;100285.53;2078525;28;20676;-65
2023/04/26 04:02:32;;;;;;;5.77;4.30;;;;;;;11.21;100.00;100413.44;2074431;28;20189;-61
2023/04/26 04:03:32;;;;;;;5.93;4.43;;;;;;;11.14;100.00;100399.78;2072816;28;20458;-61
2023/04/26 04:04:33;;;;;;;6.30;4.40;;;;;;;11.21;100.00;100418.97;2070814;28;20502;-60
2023/04/26 04:05:33;;;;;;;9.57;4.50;;;;;;;11.16;100.00;100413.97;2071980;28;20611;-60
2023/04/26 04:06:34;;;;;;;9.57;4.90;;;;;;;11.14;100.00;100419.19;2070356;28;20714;-60
2023/04/26 04:07:35;;;;;;;5.83;4.53;;;;;;;11.09;100.00;100419.72;2071600;28;20194;-66
2023/04/26 04:08:35;;;;;;;6.30;4.67;;;;;;;11.17;100.00;100423.88;2074023;28;20635;-60
2023/04/26 04:09:36;;;;;;;6.30;4.20;;;;;;;11.22;100.00;100418.53;2073896;28;20707;-61
2023/04/26 04:10:36;;;;;;;5.67;4.13;;;;;;;11.21;100.00;100414.22;2076472;28;20200;-61
2023/04/26 04:11:37;;;;;;;7.23;4.50;;;;;;;11.17;100.00;100410.75;2072304;28;20655;-61
2023/04/26 04:12:37;;;;;;;5.63;4.47;;;;;;;10.88;100.00;100368.47;2077238;28;20243;-67
2023/04/26 04:13:38;;;;;;;6.07;4.10;;;;;;;11.28;100.00;100414.00;2073650;28;20282;-65
2023/04/26 04:14:38;;;;;;;5.70;4.20;;;;;;;11.27;100.00;100414.47;2070916;28;20278;-63
2023/04/26 04:15:39;;;;;;;6.00;4.30;;;;;;;10.86;100.00;100359.78;2070746;28;20181;-62
2023/04/26 04:16:39;;;;;;;8.43;4.70;;;;;;;11.31;100.00;100421.44;2070421;28;20667;-63
2023/04/26 04:17:39;;;;;;;6.07;3.90;;;;;;;11.39;100.00;100422.81;2072211;28;20659;-65
2023/04/26 04:18:40;;;;;;;5.53;4.17;;;;;;;11.24;100.00;100395.91;2072635;28;20547;-65
2023/04/26 04:19:41;;;;;;;5.57;4.00;;;;;;;11.46;100.00;100427.34;2070876;28;20199;-65
2023/04/26 04:20:41;;;;;;;6.00;4.10;;;;;;;11.46;100.00;100425.34;2071009;28;20206;-62
2023/04/26 04:21:42;;;;;;;4.63;3.93;;;;;;;10.39;100.00;100261.81;2071944;28;20564;-67
2023/04/26 04:22:42;;;;;;;7.33;4.47;;;;;;;11.51;100.00;100432.31;2071964;28;20579;-62
2023/04/26 04:23:43;;;;;;;6.07;3.53;;;;;;;11.53;100.00;100421.59;2079057;28;20188;-65
2023/04/26 04:24:43;;;;;;;4.03;3.50;;;;;;;11.57;100.00;100419.44;2076567;28;20219;-67
2023/04/26 04:25:44;;;;;;;5.23;3.87;;;;;;;11.58;100.00;100421.78;2076335;28;20190;-67
2023/04/26 04:26:45;;;;;;;4.97;3.53;;;;;;;11.67;100.00;100421.94;2077983;28;20192;-70
2023/04/26 04:27:45;;;;;;;7.43;3.43;;;;;;;11.71;100.00;100424.59;2075963;28;20657;-64
2023/04/26 04:28:46;;;;;;;3.80;3.40;;;;;;;11.70;100.00;100412.75;2070619;28;20689;-65
2023/04/26 04:29:46;;;;;;;6.80;3.90;;;;;;;11.82;100.00;100423.03;2072524;28;20220;-66
2023/04/26 04:30:46;;;;;;;4.47;3.47;;;;;;;11.84;100.00;100425.38;2070296;28;20570;-64
2023/04/26 04:31:47;;;;;;;7.17;3.40;;;;;;;11.93;100.00;100422.72;2069515;28;20703;-63
2023/04/26 04:32:47;;;;;;;4.90;3.40;;;;;;;11.96;100.00;100421.81;2070806;28;20215;-66
2023/04/26 04:33:48;;;;;;;5.33;3.13;;;;;;;11.98;100.00;100422.91;2069228;28;20363;-64
2023/04/26 04:34:50;;;;;;;4.77;3.30;;;;;;;12.03;100.00;100424.34;2071399;28;20710;-66
2023/04/26 04:35:51;;;;;;;4.60;3.10;;;;;;;11.97;100.00;100412.25;2072592;28;20260;-65
2023/04/26 04:36:51;;;;;;;5.47;3.20;;;;;;;11.68;100.00;100397.75;2069338;28;20440;-65
2023/04/26 04:37:52;;;;;;;6.57;2.90;;;;;;;12.05;100.00;100425.44;2070420;28;20573;-65
2023/04/26 04:38:52;;;;;;;3.63;3.13;;;;;;;12.05;100.00;100431.00;2066962;28;20597;-65